BAW924 EGLL-EDDL
Flight info
| Callsign | BAW924 |
|---|---|
| Flight time | 0h 50m |
| Altitude | 33000 |
| Route | DCT BPK Q295 BRAIN M197 REDFA L620 PAM P62 PISAP DCT |
| Aircraft | A320/M-SDE3FGHIJ1RWXY/S |
Departure
| Time | 2026-05-06 15:10 |
|---|---|
| Airport | London Heathrow Airport (EGLL) |
Arrival
| Time | 2026-05-06 16:01 |
|---|---|
| Airport | Düsseldorf Airport (EDDL) |
| Time | Latitude | Longitude | Altitude | Speed | Heading |
|---|---|---|---|---|---|
| 2026-05-06 14:33 | 51.47271 | -0.48581 | 87 ft | 0 kts | 270° |
| 2026-05-06 14:52 | 51.47271 | -0.48579 | 85 ft | 2 kts | 270° |
| 2026-05-06 14:52 | 51.47271 | -0.48551 | 89 ft | 2 kts | 270° |
| 2026-05-06 14:53 | 51.47271 | -0.48524 | 86 ft | 2 kts | 270° |
| 2026-05-06 14:53 | 51.47271 | -0.48497 | 87 ft | 2 kts | 231° |
| 2026-05-06 14:53 | 51.47282 | -0.48484 | 89 ft | 0 kts | 178° |
| 2026-05-06 14:53 | 51.47281 | -0.48483 | 85 ft | 0 kts | 178° |
| 2026-05-06 14:54 | 51.47276 | -0.48483 | 87 ft | 1 kts | 178° |
| 2026-05-06 14:54 | 51.47274 | -0.48483 | 86 ft | 0 kts | 178° |
| 2026-05-06 14:55 | 51.47269 | -0.48483 | 86 ft | 4 kts | 178° |
| 2026-05-06 14:56 | 51.47189 | -0.48477 | 85 ft | 17 kts | 178° |
| 2026-05-06 14:56 | 51.47069 | -0.48475 | 85 ft | 14 kts | 179° |
| 2026-05-06 14:56 | 51.46968 | -0.48474 | 85 ft | 15 kts | 179° |
| 2026-05-06 14:56 | 51.46917 | -0.48472 | 86 ft | 0 kts | 179° |
| 2026-05-06 14:57 | 51.46906 | -0.48472 | 87 ft | 3 kts | 179° |
| 2026-05-06 14:57 | 51.46879 | -0.48471 | 86 ft | 5 kts | 179° |
| 2026-05-06 14:57 | 51.46836 | -0.48471 | 87 ft | 7 kts | 179° |
| 2026-05-06 14:57 | 51.46829 | -0.48470 | 86 ft | 0 kts | 179° |
| 2026-05-06 15:04 | 51.46824 | -0.48470 | 85 ft | 2 kts | 179° |
| 2026-05-06 15:04 | 51.46815 | -0.48470 | 88 ft | 0 kts | 179° |
| 2026-05-06 15:05 | 51.46807 | -0.48470 | 87 ft | 5 kts | 179° |
| 2026-05-06 15:05 | 51.46732 | -0.48470 | 85 ft | 14 kts | 180° |
| 2026-05-06 15:05 | 51.46637 | -0.48469 | 89 ft | 12 kts | 180° |
| 2026-05-06 15:06 | 51.46592 | -0.48469 | 89 ft | 0 kts | 180° |
| 2026-05-06 15:08 | 51.46588 | -0.48469 | 89 ft | 2 kts | 180° |
| 2026-05-06 15:08 | 51.46566 | -0.48469 | 89 ft | 6 kts | 180° |
| 2026-05-06 15:09 | 51.46501 | -0.48457 | 90 ft | 12 kts | 154° |
| 2026-05-06 15:09 | 51.46479 | -0.48338 | 88 ft | 0 kts | 90° |
| 2026-05-06 15:09 | 51.46479 | -0.48329 | 88 ft | 3 kts | 90° |
| 2026-05-06 15:10 | 51.46481 | -0.47883 | 83 ft | 85 kts | 89° |
| 2026-05-06 15:10 | 51.46487 | -0.46528 | 91 ft | 154 kts | 89° |
| 2026-05-06 15:10 | 51.46489 | -0.44596 | 415 ft | 184 kts | 87° |
| 2026-05-06 15:10 | 51.46532 | -0.42472 | 1206 ft | 196 kts | 79° |
| 2026-05-06 15:11 | 51.46822 | -0.40271 | 2013 ft | 209 kts | 68° |
| 2026-05-06 15:11 | 51.47530 | -0.38130 | 2826 ft | 227 kts | 50° |
| 2026-05-06 15:11 | 51.48558 | -0.36065 | 3603 ft | 246 kts | 49° |
| 2026-05-06 15:11 | 51.49646 | -0.33902 | 4396 ft | 251 kts | 49° |
| 2026-05-06 15:12 | 51.50752 | -0.31698 | 5183 ft | 255 kts | 50° |
| 2026-05-06 15:12 | 51.51880 | -0.29445 | 5812 ft | 262 kts | 49° |
| 2026-05-06 15:12 | 51.52891 | -0.27002 | 5975 ft | 265 kts | 62° |
| 2026-05-06 15:12 | 51.53543 | -0.24233 | 6006 ft | 266 kts | 65° |
| 2026-05-06 15:13 | 51.54523 | -0.21770 | 6005 ft | 261 kts | 44° |
| 2026-05-06 15:13 | 51.55985 | -0.20124 | 6065 ft | 254 kts | 20° |
| 2026-05-06 15:13 | 51.57638 | -0.19114 | 6795 ft | 258 kts | 21° |
| 2026-05-06 15:13 | 51.59328 | -0.18025 | 7479 ft | 264 kts | 16° |
| 2026-05-06 15:14 | 51.61095 | -0.17150 | 8175 ft | 267 kts | 14° |
| 2026-05-06 15:14 | 51.62882 | -0.16291 | 8876 ft | 272 kts | 15° |
| 2026-05-06 15:14 | 51.64721 | -0.15421 | 9610 ft | 276 kts | 13° |
| 2026-05-06 15:14 | 51.66575 | -0.14566 | 10300 ft | 280 kts | 13° |
| 2026-05-06 15:15 | 51.68467 | -0.13715 | 10968 ft | 284 kts | 16° |
| 2026-05-06 15:15 | 51.70311 | -0.12479 | 11651 ft | 290 kts | 26° |
| 2026-05-06 15:15 | 51.72028 | -0.10703 | 12342 ft | 297 kts | 36° |
| 2026-05-06 15:15 | 51.73530 | -0.08377 | 13058 ft | 302 kts | 48° |
| 2026-05-06 15:16 | 51.74717 | -0.05577 | 13787 ft | 306 kts | 59° |
| 2026-05-06 15:16 | 51.75539 | -0.02376 | 14443 ft | 310 kts | 71° |
| 2026-05-06 15:16 | 51.75964 | 0.01072 | 14858 ft | 321 kts | 81° |
| 2026-05-06 15:16 | 51.76271 | 0.04757 | 14977 ft | 343 kts | 81° |
| 2026-05-06 15:17 | 51.76598 | 0.08698 | 15001 ft | 365 kts | 81° |
| 2026-05-06 15:17 | 51.76933 | 0.12813 | 15002 ft | 373 kts | 82° |
| 2026-05-06 15:17 | 51.77270 | 0.16997 | 14998 ft | 377 kts | 81° |
| 2026-05-06 15:17 | 51.77609 | 0.21181 | 15062 ft | 374 kts | 82° |
| 2026-05-06 15:18 | 51.77948 | 0.25358 | 15560 ft | 377 kts | 82° |
| 2026-05-06 15:18 | 51.78292 | 0.29571 | 16079 ft | 381 kts | 82° |
| 2026-05-06 15:18 | 51.78640 | 0.33825 | 16583 ft | 383 kts | 82° |
| 2026-05-06 15:18 | 51.78987 | 0.38114 | 17118 ft | 386 kts | 82° |
| 2026-05-06 15:19 | 51.79332 | 0.42432 | 17653 ft | 390 kts | 82° |
| 2026-05-06 15:19 | 51.79679 | 0.46795 | 18201 ft | 393 kts | 82° |
| 2026-05-06 15:19 | 51.80025 | 0.51184 | 18689 ft | 396 kts | 82° |
| 2026-05-06 15:19 | 51.80369 | 0.55618 | 19168 ft | 398 kts | 82° |
| 2026-05-06 15:20 | 51.80713 | 0.60067 | 19653 ft | 401 kts | 82° |
| 2026-05-06 15:20 | 51.81072 | 0.64548 | 20148 ft | 403 kts | 80° |
| 2026-05-06 15:20 | 51.81692 | 0.68974 | 20658 ft | 405 kts | 75° |
| 2026-05-06 15:20 | 51.82379 | 0.73401 | 21174 ft | 406 kts | 75° |
| 2026-05-06 15:21 | 51.83055 | 0.77779 | 21689 ft | 407 kts | 76° |
| 2026-05-06 15:21 | 51.83750 | 0.82278 | 22226 ft | 408 kts | 75° |
| 2026-05-06 15:21 | 51.84481 | 0.86652 | 22761 ft | 408 kts | 73° |
| 2026-05-06 15:21 | 51.85278 | 0.91056 | 23331 ft | 408 kts | 73° |
| 2026-05-06 15:22 | 51.86118 | 0.95517 | 23832 ft | 409 kts | 72° |
| 2026-05-06 15:22 | 51.86941 | 0.99852 | 24299 ft | 408 kts | 72° |
| 2026-05-06 15:22 | 51.87769 | 1.04243 | 24781 ft | 408 kts | 73° |
| 2026-05-06 15:22 | 51.88582 | 1.08640 | 25269 ft | 407 kts | 73° |
| 2026-05-06 15:23 | 51.89378 | 1.13028 | 25763 ft | 406 kts | 73° |
| 2026-05-06 15:23 | 51.90164 | 1.17413 | 26221 ft | 406 kts | 73° |
| 2026-05-06 15:23 | 51.90948 | 1.21816 | 26614 ft | 408 kts | 73° |
| 2026-05-06 15:23 | 51.91736 | 1.26247 | 27005 ft | 410 kts | 73° |
| 2026-05-06 15:24 | 51.92524 | 1.30677 | 27404 ft | 411 kts | 74° |
| 2026-05-06 15:24 | 51.93316 | 1.35141 | 27806 ft | 413 kts | 74° |
| 2026-05-06 15:24 | 51.94113 | 1.39619 | 28213 ft | 414 kts | 74° |
| 2026-05-06 15:24 | 51.94908 | 1.44094 | 28628 ft | 414 kts | 74° |
| 2026-05-06 15:25 | 51.95701 | 1.48582 | 29049 ft | 414 kts | 74° |
| 2026-05-06 15:25 | 51.96491 | 1.53078 | 29487 ft | 414 kts | 75° |
| 2026-05-06 15:25 | 51.97279 | 1.57574 | 29914 ft | 414 kts | 75° |
| 2026-05-06 15:25 | 51.98063 | 1.62070 | 30301 ft | 414 kts | 75° |
| 2026-05-06 15:26 | 51.98848 | 1.66560 | 30675 ft | 415 kts | 75° |
| 2026-05-06 15:26 | 51.99622 | 1.71070 | 31049 ft | 415 kts | 75° |
| 2026-05-06 15:26 | 52.00354 | 1.75597 | 31427 ft | 415 kts | 76° |
| 2026-05-06 15:26 | 52.01055 | 1.80133 | 31815 ft | 414 kts | 76° |
| 2026-05-06 15:27 | 52.01741 | 1.84673 | 32216 ft | 414 kts | 76° |
| 2026-05-06 15:27 | 52.02425 | 1.89204 | 32613 ft | 412 kts | 76° |
| 2026-05-06 15:27 | 52.03112 | 1.93727 | 32919 ft | 414 kts | 76° |
| 2026-05-06 15:28 | 52.04527 | 2.02974 | 32967 ft | 431 kts | 76° |
| 2026-05-06 15:28 | 52.06010 | 2.12623 | 32968 ft | 449 kts | 76° |
| 2026-05-06 15:29 | 52.07527 | 2.22594 | 32964 ft | 457 kts | 76° |
| 2026-05-06 15:29 | 52.09047 | 2.32650 | 32962 ft | 458 kts | 76° |
| 2026-05-06 15:30 | 52.10557 | 2.42729 | 32958 ft | 458 kts | 76° |
| 2026-05-06 15:30 | 52.12105 | 2.52805 | 32962 ft | 459 kts | 75° |
| 2026-05-06 15:31 | 52.13981 | 2.62747 | 32959 ft | 460 kts | 72° |
| 2026-05-06 15:31 | 52.15980 | 2.72636 | 32962 ft | 460 kts | 72° |
| 2026-05-06 15:32 | 52.18849 | 2.87547 | 32956 ft | 460 kts | 73° |
| 2026-05-06 15:32 | 52.20681 | 2.97458 | 32947 ft | 460 kts | 73° |
| 2026-05-06 15:33 | 52.22519 | 3.07442 | 32944 ft | 460 kts | 73° |
| 2026-05-06 15:33 | 52.23853 | 3.17580 | 32933 ft | 457 kts | 92° |
| 2026-05-06 15:34 | 52.23125 | 3.27838 | 32928 ft | 455 kts | 99° |
| 2026-05-06 15:34 | 52.22216 | 3.38064 | 32917 ft | 456 kts | 100° |
| 2026-05-06 15:35 | 52.21294 | 3.48295 | 32917 ft | 456 kts | 100° |
| 2026-05-06 15:35 | 52.20373 | 3.58535 | 32919 ft | 456 kts | 99° |
| 2026-05-06 15:36 | 52.19455 | 3.68761 | 32922 ft | 456 kts | 99° |
| 2026-05-06 15:36 | 52.18530 | 3.78990 | 32917 ft | 456 kts | 99° |
| 2026-05-06 15:37 | 52.17591 | 3.89220 | 32920 ft | 456 kts | 100° |
| 2026-05-06 15:37 | 52.16636 | 3.99441 | 32921 ft | 456 kts | 100° |
| 2026-05-06 15:38 | 52.15674 | 4.09637 | 32938 ft | 455 kts | 101° |
| 2026-05-06 15:38 | 52.14715 | 4.19786 | 32928 ft | 453 kts | 101° |
| 2026-05-06 15:39 | 52.13751 | 4.29921 | 32918 ft | 453 kts | 100° |
| 2026-05-06 15:39 | 52.12273 | 4.39788 | 32907 ft | 447 kts | 118° |
| 2026-05-06 15:40 | 52.08944 | 4.48268 | 32485 ft | 446 kts | 125° |
| 2026-05-06 15:40 | 52.07213 | 4.52455 | 31980 ft | 446 kts | 126° |
| 2026-05-06 15:40 | 52.05478 | 4.56626 | 31483 ft | 446 kts | 126° |
| 2026-05-06 15:41 | 52.03741 | 4.60795 | 30994 ft | 444 kts | 126° |
| 2026-05-06 15:41 | 52.02018 | 4.64927 | 30537 ft | 441 kts | 126° |
| 2026-05-06 15:41 | 52.00306 | 4.69037 | 30043 ft | 438 kts | 126° |
| 2026-05-06 15:41 | 51.98604 | 4.73114 | 29501 ft | 435 kts | 126° |
| 2026-05-06 15:42 | 51.96915 | 4.77159 | 28965 ft | 432 kts | 126° |
| 2026-05-06 15:42 | 51.95235 | 4.81177 | 28426 ft | 429 kts | 126° |
| 2026-05-06 15:42 | 51.93591 | 4.85102 | 27912 ft | 425 kts | 126° |
| 2026-05-06 15:42 | 51.91936 | 4.89051 | 27410 ft | 422 kts | 126° |
| 2026-05-06 15:43 | 51.90293 | 4.92957 | 26899 ft | 418 kts | 126° |
| 2026-05-06 15:43 | 51.88659 | 4.96832 | 26395 ft | 416 kts | 126° |
| 2026-05-06 15:43 | 51.87032 | 5.00691 | 25908 ft | 414 kts | 126° |
| 2026-05-06 15:43 | 51.85415 | 5.04526 | 25381 ft | 412 kts | 126° |
| 2026-05-06 15:44 | 51.83803 | 5.08337 | 24865 ft | 409 kts | 126° |
| 2026-05-06 15:44 | 51.82199 | 5.12122 | 24357 ft | 407 kts | 126° |
| 2026-05-06 15:44 | 51.80601 | 5.15890 | 23858 ft | 405 kts | 126° |
| 2026-05-06 15:44 | 51.79012 | 5.19633 | 23346 ft | 404 kts | 126° |
| 2026-05-06 15:45 | 51.77424 | 5.23371 | 22764 ft | 402 kts | 126° |
| 2026-05-06 15:45 | 51.75845 | 5.27076 | 22190 ft | 399 kts | 126° |
| 2026-05-06 15:45 | 51.74286 | 5.30736 | 21629 ft | 392 kts | 126° |
| 2026-05-06 15:45 | 51.72753 | 5.34332 | 21072 ft | 386 kts | 126° |
| 2026-05-06 15:46 | 51.71240 | 5.37869 | 20533 ft | 380 kts | 126° |
| 2026-05-06 15:46 | 51.69752 | 5.41348 | 20003 ft | 374 kts | 127° |
| 2026-05-06 15:46 | 51.68290 | 5.44757 | 19482 ft | 368 kts | 126° |
| 2026-05-06 15:46 | 51.66844 | 5.48120 | 18971 ft | 362 kts | 126° |
| 2026-05-06 15:47 | 51.65422 | 5.51424 | 18470 ft | 356 kts | 126° |
| 2026-05-06 15:47 | 51.64022 | 5.54680 | 17942 ft | 351 kts | 126° |
| 2026-05-06 15:47 | 51.62639 | 5.57893 | 17373 ft | 347 kts | 126° |
| 2026-05-06 15:47 | 51.61271 | 5.61062 | 16815 ft | 343 kts | 126° |
| 2026-05-06 15:48 | 51.59911 | 5.64199 | 16266 ft | 341 kts | 126° |
| 2026-05-06 15:48 | 51.58557 | 5.67316 | 15729 ft | 339 kts | 125° |
| 2026-05-06 15:48 | 51.57215 | 5.70412 | 15197 ft | 337 kts | 124° |
| 2026-05-06 15:48 | 51.55880 | 5.73495 | 14679 ft | 334 kts | 124° |
| 2026-05-06 15:49 | 51.54556 | 5.76551 | 14166 ft | 333 kts | 124° |
| 2026-05-06 15:49 | 51.53234 | 5.79596 | 13670 ft | 331 kts | 123° |
| 2026-05-06 15:49 | 51.51919 | 5.82612 | 13166 ft | 328 kts | 123° |
| 2026-05-06 15:49 | 51.50615 | 5.85591 | 12680 ft | 324 kts | 123° |
| 2026-05-06 15:50 | 51.49343 | 5.88492 | 12278 ft | 319 kts | 123° |
| 2026-05-06 15:50 | 51.48080 | 5.91383 | 11894 ft | 314 kts | 123° |
| 2026-05-06 15:50 | 51.47243 | 5.93303 | 11646 ft | 310 kts | 123° |
| 2026-05-06 15:50 | 51.45622 | 5.97021 | 11171 ft | 303 kts | 123° |
| 2026-05-06 15:51 | 51.44419 | 5.99770 | 10817 ft | 300 kts | 123° |
| 2026-05-06 15:51 | 51.43224 | 6.02491 | 10479 ft | 297 kts | 123° |
| 2026-05-06 15:51 | 51.42035 | 6.05194 | 10134 ft | 297 kts | 123° |
| 2026-05-06 15:51 | 51.40848 | 6.07894 | 9786 ft | 297 kts | 123° |
| 2026-05-06 15:52 | 51.40047 | 6.09718 | 9545 ft | 296 kts | 123° |
| 2026-05-06 15:52 | 51.38858 | 6.12422 | 9171 ft | 296 kts | 123° |
| 2026-05-06 15:52 | 51.37677 | 6.15104 | 8774 ft | 292 kts | 123° |
| 2026-05-06 15:52 | 51.36533 | 6.17695 | 8435 ft | 285 kts | 123° |
| 2026-05-06 15:53 | 51.35390 | 6.20279 | 8069 ft | 278 kts | 123° |
| 2026-05-06 15:53 | 51.34302 | 6.22740 | 7732 ft | 271 kts | 122° |
| 2026-05-06 15:53 | 51.33228 | 6.25168 | 7441 ft | 263 kts | 122° |
| 2026-05-06 15:53 | 51.32185 | 6.27524 | 7156 ft | 256 kts | 122° |
| 2026-05-06 15:54 | 51.31162 | 6.29837 | 6891 ft | 254 kts | 123° |
| 2026-05-06 15:54 | 51.30142 | 6.32137 | 6621 ft | 254 kts | 123° |
| 2026-05-06 15:54 | 51.29125 | 6.34428 | 6350 ft | 253 kts | 123° |
| 2026-05-06 15:54 | 51.28113 | 6.36708 | 6069 ft | 251 kts | 123° |
| 2026-05-06 15:55 | 51.27105 | 6.38972 | 5785 ft | 249 kts | 123° |
| 2026-05-06 15:55 | 51.26103 | 6.41219 | 5497 ft | 247 kts | 123° |
| 2026-05-06 15:55 | 51.25118 | 6.43431 | 5157 ft | 241 kts | 123° |
| 2026-05-06 15:55 | 51.24159 | 6.45583 | 4819 ft | 234 kts | 123° |
| 2026-05-06 15:56 | 51.23224 | 6.47672 | 4479 ft | 228 kts | 123° |
| 2026-05-06 15:56 | 51.22314 | 6.49704 | 4150 ft | 222 kts | 123° |
| 2026-05-06 15:56 | 51.21428 | 6.51683 | 3814 ft | 217 kts | 123° |
| 2026-05-06 15:56 | 51.20602 | 6.53639 | 3460 ft | 208 kts | 114° |
| 2026-05-06 15:57 | 51.20174 | 6.55782 | 3049 ft | 197 kts | 94° |
| 2026-05-06 15:57 | 51.20213 | 6.57856 | 2851 ft | 177 kts | 75° |
| 2026-05-06 15:57 | 51.20593 | 6.59637 | 2617 ft | 163 kts | 59° |
| 2026-05-06 15:57 | 51.21193 | 6.61056 | 2427 ft | 149 kts | 50° |
| 2026-05-06 15:58 | 51.21803 | 6.62331 | 2243 ft | 141 kts | 49° |
| 2026-05-06 15:58 | 51.22394 | 6.63561 | 2053 ft | 139 kts | 48° |
| 2026-05-06 15:58 | 51.22984 | 6.64792 | 1859 ft | 139 kts | 49° |
| 2026-05-06 15:58 | 51.23572 | 6.66019 | 1676 ft | 139 kts | 49° |
| 2026-05-06 15:59 | 51.24160 | 6.67247 | 1475 ft | 139 kts | 49° |
| 2026-05-06 15:59 | 51.24753 | 6.68485 | 1309 ft | 142 kts | 49° |
| 2026-05-06 15:59 | 51.25353 | 6.69739 | 1092 ft | 143 kts | 50° |
| 2026-05-06 15:59 | 51.25955 | 6.70998 | 866 ft | 144 kts | 50° |
| 2026-05-06 16:00 | 51.26552 | 6.72291 | 663 ft | 144 kts | 51° |
| 2026-05-06 16:00 | 51.27145 | 6.73561 | 465 ft | 141 kts | 48° |
| 2026-05-06 16:00 | 51.27741 | 6.74773 | 282 ft | 142 kts | 49° |
| 2026-05-06 16:00 | 51.28352 | 6.76031 | 151 ft | 139 kts | 52° |
| 2026-05-06 16:01 | 51.28865 | 6.77094 | 124 ft | 103 kts | 52° |
| 2026-05-06 16:01 | 51.29115 | 6.77618 | 128 ft | 16 kts | 53° |
| 2026-05-06 16:01 | 51.29197 | 6.77790 | 134 ft | 26 kts | 52° |
| 2026-05-06 16:01 | 51.29285 | 6.77978 | 135 ft | 14 kts | 60° |
| 2026-05-06 16:02 | 51.29288 | 6.78128 | 136 ft | 14 kts | 114° |
| 2026-05-06 16:02 | 51.29213 | 6.78211 | 135 ft | 14 kts | 176° |
| 2026-05-06 16:02 | 51.29137 | 6.78133 | 134 ft | 14 kts | 231° |
| 2026-05-06 16:02 | 51.29058 | 6.77971 | 134 ft | 24 kts | 231° |
| 2026-05-06 16:03 | 51.28930 | 6.77700 | 131 ft | 37 kts | 233° |
| 2026-05-06 16:03 | 51.28771 | 6.77366 | 127 ft | 37 kts | 233° |
| 2026-05-06 16:03 | 51.28615 | 6.77040 | 133 ft | 36 kts | 232° |
| 2026-05-06 16:03 | 51.28492 | 6.76782 | 126 ft | 20 kts | 233° |
| 2026-05-06 16:04 | 51.28399 | 6.76692 | 127 ft | 12 kts | 161° |
| 2026-05-06 16:04 | 51.28337 | 6.76639 | 125 ft | 11 kts | 229° |
| 2026-05-06 16:04 | 51.28288 | 6.76540 | 125 ft | 12 kts | 232° |
| 2026-05-06 16:04 | 51.28236 | 6.76450 | 125 ft | 10 kts | 197° |
| 2026-05-06 16:05 | 51.28198 | 6.76514 | 122 ft | 9 kts | 110° |
| 2026-05-06 16:05 | 51.28192 | 6.76570 | 124 ft | 0 kts | 95° |